sensor_id;sensor_type;location;lat;lon;timestamp;P1;durP1;ratioP1;P2;durP2;ratioP2
60318;SDS011;46163;52.306;5.634;2022-11-27T00:00:24;1.30;;;1.20;;
60318;SDS011;46163;52.306;5.634;2022-11-27T00:02:50;1.13;;;1.13;;
60318;SDS011;46163;52.306;5.634;2022-11-27T00:05:15;1.42;;;1.30;;
60318;SDS011;46163;52.306;5.634;2022-11-27T00:07:41;1.45;;;1.30;;
60318;SDS011;46163;52.306;5.634;2022-11-27T00:10:06;1.48;;;1.25;;
60318;SDS011;46163;52.306;5.634;2022-11-27T00:12:33;1.67;;;1.17;;
60318;SDS011;46163;52.306;5.634;2022-11-27T00:14:59;1.40;;;1.30;;
60318;SDS011;46163;52.306;5.634;2022-11-27T00:17:24;1.33;;;1.23;;
60318;SDS011;46163;52.306;5.634;2022-11-27T00:19:50;1.23;;;1.15;;
60318;SDS011;46163;52.306;5.634;2022-11-27T00:22:16;1.20;;;1.10;;
60318;SDS011;46163;52.306;5.634;2022-11-27T00:27:10;1.35;;;1.20;;
60318;SDS011;46163;52.306;5.634;2022-11-27T00:29:36;1.30;;;1.20;;
60318;SDS011;46163;52.306;5.634;2022-11-27T00:32:01;1.30;;;1.20;;
60318;SDS011;46163;52.306;5.634;2022-11-27T00:34:27;1.02;;;1.00;;
60318;SDS011;46163;52.306;5.634;2022-11-27T00:36:53;1.55;;;1.30;;
60318;SDS011;46163;52.306;5.634;2022-11-27T00:39:19;2.42;;;1.40;;
60318;SDS011;46163;52.306;5.634;2022-11-27T00:41:44;1.58;;;1.48;;
60318;SDS011;46163;52.306;5.634;2022-11-27T00:44:12;1.95;;;1.35;;
60318;SDS011;46163;52.306;5.634;2022-11-27T00:46:38;1.67;;;1.30;;
60318;SDS011;46163;52.306;5.634;2022-11-27T00:49:05;1.63;;;1.30;;
60318;SDS011;46163;52.306;5.634;2022-11-27T00:51:32;2.15;;;1.40;;
60318;SDS011;46163;52.306;5.634;2022-11-27T00:53:58;1.55;;;1.27;;
60318;SDS011;46163;52.306;5.634;2022-11-27T00:56:27;2.15;;;1.17;;
60318;SDS011;46163;52.306;5.634;2022-11-27T00:58:56;1.67;;;1.27;;
60318;SDS011;46163;52.306;5.634;2022-11-27T01:01:27;1.20;;;1.20;;
60318;SDS011;46163;52.306;5.634;2022-11-27T01:03:56;1.20;;;1.10;;
60318;SDS011;46163;52.306;5.634;2022-11-27T01:06:22;1.40;;;1.30;;
60318;SDS011;46163;52.306;5.634;2022-11-27T01:08:48;2.08;;;1.45;;
60318;SDS011;46163;52.306;5.634;2022-11-27T01:11:16;1.30;;;1.20;;
60318;SDS011;46163;52.306;5.634;2022-11-27T01:13:43;1.27;;;1.20;;
60318;SDS011;46163;52.306;5.634;2022-11-27T01:16:19;1.92;;;1.20;;
60318;SDS011;46163;52.306;5.634;2022-11-27T01:18:47;1.67;;;1.30;;
60318;SDS011;46163;52.306;5.634;2022-11-27T01:21:15;1.07;;;1.07;;
60318;SDS011;46163;52.306;5.634;2022-11-27T01:23:44;1.13;;;0.98;;
60318;SDS011;46163;52.306;5.634;2022-11-27T01:26:10;1.58;;;1.30;;
60318;SDS011;46163;52.306;5.634;2022-11-27T01:28:37;2.42;;;1.25;;
60318;SDS011;46163;52.306;5.634;2022-11-27T01:31:07;1.38;;;1.25;;
60318;SDS011;46163;52.306;5.634;2022-11-27T01:33:35;1.67;;;1.27;;
60318;SDS011;46163;52.306;5.634;2022-11-27T01:36:01;1.38;;;1.17;;
60318;SDS011;46163;52.306;5.634;2022-11-27T01:38:30;0.98;;;0.98;;
60318;SDS011;46163;52.306;5.634;2022-11-27T01:41:00;1.05;;;1.05;;
60318;SDS011;46163;52.306;5.634;2022-11-27T01:43:38;2.05;;;1.20;;
60318;SDS011;46163;52.306;5.634;2022-11-27T01:46:09;1.17;;;1.02;;
60318;SDS011;46163;52.306;5.634;2022-11-27T01:49:02;2.10;;;1.52;;
60318;SDS011;46163;52.306;5.634;2022-11-27T01:51:32;1.63;;;1.20;;
60318;SDS011;46163;52.306;5.634;2022-11-27T01:54:01;1.52;;;1.35;;
60318;SDS011;46163;52.306;5.634;2022-11-27T01:56:26;2.60;;;1.33;;
60318;SDS011;46163;52.306;5.634;2022-11-27T01:58:54;1.45;;;1.35;;
60318;SDS011;46163;52.306;5.634;2022-11-27T02:03:50;1.30;;;1.20;;
60318;SDS011;46163;52.306;5.634;2022-11-27T02:06:19;1.10;;;1.10;;
60318;SDS011;46163;52.306;5.634;2022-11-27T02:08:45;1.73;;;1.40;;
60318;SDS011;46163;52.306;5.634;2022-11-27T02:11:18;1.10;;;1.10;;
60318;SDS011;46163;52.306;5.634;2022-11-27T02:14:08;1.83;;;1.20;;
60318;SDS011;46163;52.306;5.634;2022-11-27T02:16:46;1.27;;;1.20;;
60318;SDS011;46163;52.306;5.634;2022-11-27T02:21:55;1.70;;;1.20;;
60318;SDS011;46163;52.306;5.634;2022-11-27T02:27:23;1.50;;;1.10;;
60318;SDS011;46163;52.306;5.634;2022-11-27T02:30:05;1.35;;;1.27;;
60318;SDS011;46163;52.306;5.634;2022-11-27T02:32:34;1.00;;;1.00;;
60318;SDS011;46163;52.306;5.634;2022-11-27T02:35:18;1.05;;;1.05;;
60318;SDS011;46163;52.306;5.634;2022-11-27T02:37:56;0.98;;;0.98;;
60318;SDS011;46163;52.306;5.634;2022-11-27T02:43:16;1.30;;;1.20;;
60318;SDS011;46163;52.306;5.634;2022-11-27T02:45:47;1.52;;;1.40;;
60318;SDS011;46163;52.306;5.634;2022-11-27T02:48:16;2.40;;;1.30;;
60318;SDS011;46163;52.306;5.634;2022-11-27T02:50:45;1.23;;;1.13;;
60318;SDS011;46163;52.306;5.634;2022-11-27T02:53:22;1.20;;;1.20;;
60318;SDS011;46163;52.306;5.634;2022-11-27T02:55:53;1.27;;;1.23;;
60318;SDS011;46163;52.306;5.634;2022-11-27T02:58:22;0.95;;;0.93;;
60318;SDS011;46163;52.306;5.634;2022-11-27T03:00:51;1.13;;;1.13;;
60318;SDS011;46163;52.306;5.634;2022-11-27T03:03:20;1.27;;;1.20;;
60318;SDS011;46163;52.306;5.634;2022-11-27T03:05:51;1.00;;;1.00;;
60318;SDS011;46163;52.306;5.634;2022-11-27T03:10:51;1.50;;;1.20;;
60318;SDS011;46163;52.306;5.634;2022-11-27T03:13:27;1.40;;;1.30;;
60318;SDS011;46163;52.306;5.634;2022-11-27T03:18:43;1.67;;;1.10;;
60318;SDS011;46163;52.306;5.634;2022-11-27T03:21:32;1.10;;;1.10;;
60318;SDS011;46163;52.306;5.634;2022-11-27T03:24:01;1.85;;;1.50;;
60318;SDS011;46163;52.306;5.634;2022-11-27T03:26:27;1.17;;;1.10;;
60318;SDS011;46163;52.306;5.634;2022-11-27T03:28:53;1.23;;;1.02;;
60318;SDS011;46163;52.306;5.634;2022-11-27T03:31:22;1.35;;;1.05;;
60318;SDS011;46163;52.306;5.634;2022-11-27T03:33:49;1.10;;;1.10;;
60318;SDS011;46163;52.306;5.634;2022-11-27T03:36:18;1.58;;;1.30;;
60318;SDS011;46163;52.306;5.634;2022-11-27T03:38:44;0.95;;;0.95;;
60318;SDS011;46163;52.306;5.634;2022-11-27T03:47:40;1.25;;;1.10;;
60318;SDS011;46163;52.306;5.634;2022-11-27T03:55:48;1.55;;;1.25;;
60318;SDS011;46163;52.306;5.634;2022-11-27T04:01:07;1.20;;;1.10;;
60318;SDS011;46163;52.306;5.634;2022-11-27T04:03:38;1.30;;;1.20;;
60318;SDS011;46163;52.306;5.634;2022-11-27T04:06:04;1.02;;;1.00;;
60318;SDS011;46163;52.306;5.634;2022-11-27T04:08:29;1.40;;;1.20;;
60318;SDS011;46163;52.306;5.634;2022-11-27T04:10:55;1.05;;;1.02;;
60318;SDS011;46163;52.306;5.634;2022-11-27T04:13:20;0.95;;;0.95;;
60318;SDS011;46163;52.306;5.634;2022-11-27T04:15:46;0.80;;;0.80;;
60318;SDS011;46163;52.306;5.634;2022-11-27T04:18:13;1.10;;;1.10;;
60318;SDS011;46163;52.306;5.634;2022-11-27T04:20:39;1.58;;;0.93;;
60318;SDS011;46163;52.306;5.634;2022-11-27T04:23:04;1.33;;;1.13;;
60318;SDS011;46163;52.306;5.634;2022-11-27T04:25:30;1.90;;;1.02;;
60318;SDS011;46163;52.306;5.634;2022-11-27T04:27:56;1.48;;;1.30;;
60318;SDS011;46163;52.306;5.634;2022-11-27T04:30:22;1.10;;;1.10;;
60318;SDS011;46163;52.306;5.634;2022-11-27T04:32:47;1.20;;;1.10;;
60318;SDS011;46163;52.306;5.634;2022-11-27T04:35:13;1.67;;;1.00;;
60318;SDS011;46163;52.306;5.634;2022-11-27T04:37:38;1.23;;;1.00;;
60318;SDS011;46163;52.306;5.634;2022-11-27T04:40:04;1.05;;;1.05;;
60318;SDS011;46163;52.306;5.634;2022-11-27T04:42:30;1.30;;;1.20;;
60318;SDS011;46163;52.306;5.634;2022-11-27T04:44:56;0.60;;;0.60;;
60318;SDS011;46163;52.306;5.634;2022-11-27T04:47:21;0.95;;;0.85;;
60318;SDS011;46163;52.306;5.634;2022-11-27T04:49:47;1.00;;;1.00;;
60318;SDS011;46163;52.306;5.634;2022-11-27T04:52:12;0.70;;;0.70;;
60318;SDS011;46163;52.306;5.634;2022-11-27T04:54:37;0.98;;;0.98;;
60318;SDS011;46163;52.306;5.634;2022-11-27T04:57:03;0.90;;;0.90;;
60318;SDS011;46163;52.306;5.634;2022-11-27T04:59:28;0.75;;;0.75;;
60318;SDS011;46163;52.306;5.634;2022-11-27T05:01:54;0.77;;;0.77;;
60318;SDS011;46163;52.306;5.634;2022-11-27T05:04:20;0.60;;;0.60;;
60318;SDS011;46163;52.306;5.634;2022-11-27T05:06:45;0.75;;;0.75;;
60318;SDS011;46163;52.306;5.634;2022-11-27T05:09:11;1.17;;;0.77;;
60318;SDS011;46163;52.306;5.634;2022-11-27T05:11:37;1.05;;;0.80;;
60318;SDS011;46163;52.306;5.634;2022-11-27T05:14:03;0.60;;;0.60;;
60318;SDS011;46163;52.306;5.634;2022-11-27T05:19:14;0.70;;;0.70;;
60318;SDS011;46163;52.306;5.634;2022-11-27T05:21:40;0.70;;;0.70;;
60318;SDS011;46163;52.306;5.634;2022-11-27T05:24:06;0.77;;;0.70;;
60318;SDS011;46163;52.306;5.634;2022-11-27T05:26:32;0.73;;;0.73;;
60318;SDS011;46163;52.306;5.634;2022-11-27T05:28:58;1.13;;;0.88;;
60318;SDS011;46163;52.306;5.634;2022-11-27T05:31:24;0.80;;;0.80;;
60318;SDS011;46163;52.306;5.634;2022-11-27T05:33:49;0.70;;;0.70;;
60318;SDS011;46163;52.306;5.634;2022-11-27T05:36:15;0.75;;;0.75;;
60318;SDS011;46163;52.306;5.634;2022-11-27T05:38:42;0.60;;;0.60;;
60318;SDS011;46163;52.306;5.634;2022-11-27T05:41:08;1.20;;;1.00;;
60318;SDS011;46163;52.306;5.634;2022-11-27T05:43:33;0.70;;;0.70;;
60318;SDS011;46163;52.306;5.634;2022-11-27T05:46:03;0.63;;;0.63;;
60318;SDS011;46163;52.306;5.634;2022-11-27T05:48:30;1.00;;;1.00;;
60318;SDS011;46163;52.306;5.634;2022-11-27T05:50:55;0.60;;;0.60;;
60318;SDS011;46163;52.306;5.634;2022-11-27T05:53:21;0.55;;;0.55;;
60318;SDS011;46163;52.306;5.634;2022-11-27T05:55:46;0.75;;;0.75;;
60318;SDS011;46163;52.306;5.634;2022-11-27T05:58:12;1.30;;;1.05;;
60318;SDS011;46163;52.306;5.634;2022-11-27T06:00:38;0.60;;;0.60;;
60318;SDS011;46163;52.306;5.634;2022-11-27T06:03:04;0.70;;;0.70;;
60318;SDS011;46163;52.306;5.634;2022-11-27T06:05:29;0.68;;;0.68;;
60318;SDS011;46163;52.306;5.634;2022-11-27T06:07:55;0.60;;;0.60;;
60318;SDS011;46163;52.306;5.634;2022-11-27T06:10:21;0.68;;;0.68;;
60318;SDS011;46163;52.306;5.634;2022-11-27T06:12:46;0.60;;;0.60;;
60318;SDS011;46163;52.306;5.634;2022-11-27T06:15:12;0.70;;;0.70;;
60318;SDS011;46163;52.306;5.634;2022-11-27T06:17:37;0.70;;;0.70;;
60318;SDS011;46163;52.306;5.634;2022-11-27T06:20:03;0.65;;;0.65;;
60318;SDS011;46163;52.306;5.634;2022-11-27T06:22:29;0.47;;;0.47;;
60318;SDS011;46163;52.306;5.634;2022-11-27T06:24:55;0.68;;;0.68;;
60318;SDS011;46163;52.306;5.634;2022-11-27T06:27:21;0.73;;;0.70;;
60318;SDS011;46163;52.306;5.634;2022-11-27T06:29:46;0.73;;;0.73;;
60318;SDS011;46163;52.306;5.634;2022-11-27T06:32:12;0.60;;;0.60;;
60318;SDS011;46163;52.306;5.634;2022-11-27T06:34:37;0.75;;;0.75;;
60318;SDS011;46163;52.306;5.634;2022-11-27T06:37:03;0.60;;;0.60;;
60318;SDS011;46163;52.306;5.634;2022-11-27T06:39:28;0.40;;;0.40;;
60318;SDS011;46163;52.306;5.634;2022-11-27T06:41:55;0.80;;;0.80;;
60318;SDS011;46163;52.306;5.634;2022-11-27T06:44:20;0.63;;;0.63;;
60318;SDS011;46163;52.306;5.634;2022-11-27T06:46:46;0.65;;;0.65;;
60318;SDS011;46163;52.306;5.634;2022-11-27T06:49:11;0.60;;;0.60;;
60318;SDS011;46163;52.306;5.634;2022-11-27T06:51:37;0.55;;;0.55;;
60318;SDS011;46163;52.306;5.634;2022-11-27T06:54:03;0.70;;;0.70;;
60318;SDS011;46163;52.306;5.634;2022-11-27T06:56:31;0.65;;;0.65;;
60318;SDS011;46163;52.306;5.634;2022-11-27T06:58:57;0.70;;;0.70;;
60318;SDS011;46163;52.306;5.634;2022-11-27T07:01:24;0.82;;;0.80;;
60318;SDS011;46163;52.306;5.634;2022-11-27T07:03:51;0.80;;;0.80;;
60318;SDS011;46163;52.306;5.634;2022-11-27T07:06:18;0.40;;;0.40;;
60318;SDS011;46163;52.306;5.634;2022-11-27T07:08:45;1.20;;;0.70;;
60318;SDS011;46163;52.306;5.634;2022-11-27T07:11:11;0.60;;;0.60;;
60318;SDS011;46163;52.306;5.634;2022-11-27T07:16:06;0.57;;;0.57;;
60318;SDS011;46163;52.306;5.634;2022-11-27T07:18:36;0.70;;;0.70;;
60318;SDS011;46163;52.306;5.634;2022-11-27T07:21:04;0.50;;;0.50;;
60318;SDS011;46163;52.306;5.634;2022-11-27T07:23:29;0.55;;;0.55;;
60318;SDS011;46163;52.306;5.634;2022-11-27T07:25:55;0.70;;;0.70;;
60318;SDS011;46163;52.306;5.634;2022-11-27T07:28:21;0.80;;;0.80;;
60318;SDS011;46163;52.306;5.634;2022-11-27T07:30:53;0.60;;;0.60;;
60318;SDS011;46163;52.306;5.634;2022-11-27T07:33:19;0.60;;;0.60;;
60318;SDS011;46163;52.306;5.634;2022-11-27T07:35:45;0.40;;;0.40;;
60318;SDS011;46163;52.306;5.634;2022-11-27T07:38:11;0.52;;;0.50;;
60318;SDS011;46163;52.306;5.634;2022-11-27T07:40:37;0.50;;;0.50;;
60318;SDS011;46163;52.306;5.634;2022-11-27T07:43:02;0.50;;;0.50;;
60318;SDS011;46163;52.306;5.634;2022-11-27T07:45:28;0.45;;;0.45;;
60318;SDS011;46163;52.306;5.634;2022-11-27T07:47:53;0.80;;;0.50;;
60318;SDS011;46163;52.306;5.634;2022-11-27T07:50:19;0.70;;;0.70;;
60318;SDS011;46163;52.306;5.634;2022-11-27T07:52:44;0.63;;;0.63;;
60318;SDS011;46163;52.306;5.634;2022-11-27T07:55:10;0.50;;;0.50;;
60318;SDS011;46163;52.306;5.634;2022-11-27T07:57:35;0.50;;;0.50;;
60318;SDS011;46163;52.306;5.634;2022-11-27T08:00:00;0.57;;;0.57;;
60318;SDS011;46163;52.306;5.634;2022-11-27T08:02:26;0.50;;;0.50;;
60318;SDS011;46163;52.306;5.634;2022-11-27T08:04:51;0.50;;;0.50;;
60318;SDS011;46163;52.306;5.634;2022-11-27T08:07:17;0.40;;;0.40;;
60318;SDS011;46163;52.306;5.634;2022-11-27T08:09:42;0.50;;;0.50;;
60318;SDS011;46163;52.306;5.634;2022-11-27T08:12:08;0.75;;;0.75;;
60318;SDS011;46163;52.306;5.634;2022-11-27T08:14:33;0.60;;;0.60;;
60318;SDS011;46163;52.306;5.634;2022-11-27T08:16:59;0.40;;;0.40;;
60318;SDS011;46163;52.306;5.634;2022-11-27T08:19:24;0.50;;;0.50;;
60318;SDS011;46163;52.306;5.634;2022-11-27T08:21:49;0.60;;;0.60;;
60318;SDS011;46163;52.306;5.634;2022-11-27T08:24:16;0.60;;;0.60;;
60318;SDS011;46163;52.306;5.634;2022-11-27T08:26:41;0.70;;;0.70;;
60318;SDS011;46163;52.306;5.634;2022-11-27T08:29:09;0.75;;;0.60;;
60318;SDS011;46163;52.306;5.634;2022-11-27T08:31:35;0.70;;;0.70;;
60318;SDS011;46163;52.306;5.634;2022-11-27T08:34:01;0.50;;;0.50;;
60318;SDS011;46163;52.306;5.634;2022-11-27T08:36:27;0.68;;;0.68;;
60318;SDS011;46163;52.306;5.634;2022-11-27T08:38:53;1.45;;;0.73;;
60318;SDS011;46163;52.306;5.634;2022-11-27T08:41:19;0.90;;;0.77;;
60318;SDS011;46163;52.306;5.634;2022-11-27T08:43:45;0.60;;;0.60;;
60318;SDS011;46163;52.306;5.634;2022-11-27T08:46:11;0.60;;;0.60;;
60318;SDS011;46163;52.306;5.634;2022-11-27T08:48:36;0.70;;;0.70;;
60318;SDS011;46163;52.306;5.634;2022-11-27T08:51:10;0.95;;;0.90;;
60318;SDS011;46163;52.306;5.634;2022-11-27T08:53:37;0.60;;;0.60;;
60318;SDS011;46163;52.306;5.634;2022-11-27T08:56:20;0.75;;;0.75;;
60318;SDS011;46163;52.306;5.634;2022-11-27T08:58:47;0.50;;;0.50;;
60318;SDS011;46163;52.306;5.634;2022-11-27T09:01:18;0.65;;;0.65;;
60318;SDS011;46163;52.306;5.634;2022-11-27T09:03:47;0.60;;;0.60;;
60318;SDS011;46163;52.306;5.634;2022-11-27T09:06:15;2.17;;;0.95;;
60318;SDS011;46163;52.306;5.634;2022-11-27T09:08:45;1.23;;;1.13;;
60318;SDS011;46163;52.306;5.634;2022-11-27T09:11:12;0.82;;;0.82;;
60318;SDS011;46163;52.306;5.634;2022-11-27T09:13:40;0.73;;;0.73;;
60318;SDS011;46163;52.306;5.634;2022-11-27T09:16:07;1.00;;;0.93;;
60318;SDS011;46163;52.306;5.634;2022-11-27T09:18:35;0.90;;;0.90;;
60318;SDS011;46163;52.306;5.634;2022-11-27T09:21:06;1.10;;;1.02;;
60318;SDS011;46163;52.306;5.634;2022-11-27T09:23:34;1.13;;;1.00;;
60318;SDS011;46163;52.306;5.634;2022-11-27T09:26:04;0.80;;;0.80;;
60318;SDS011;46163;52.306;5.634;2022-11-27T09:28:31;1.08;;;1.00;;
60318;SDS011;46163;52.306;5.634;2022-11-27T09:30:59;1.23;;;1.05;;
60318;SDS011;46163;52.306;5.634;2022-11-27T09:33:27;0.70;;;0.70;;
60318;SDS011;46163;52.306;5.634;2022-11-27T09:35:53;0.70;;;0.70;;
60318;SDS011;46163;52.306;5.634;2022-11-27T09:38:20;1.08;;;1.08;;
60318;SDS011;46163;52.306;5.634;2022-11-27T09:40:49;0.90;;;0.90;;
60318;SDS011;46163;52.306;5.634;2022-11-27T09:43:16;1.05;;;1.00;;
60318;SDS011;46163;52.306;5.634;2022-11-27T09:45:48;1.17;;;1.17;;
60318;SDS011;46163;52.306;5.634;2022-11-27T09:48:21;1.60;;;1.08;;
60318;SDS011;46163;52.306;5.634;2022-11-27T09:50:50;1.17;;;1.15;;
60318;SDS011;46163;52.306;5.634;2022-11-27T09:53:31;0.95;;;0.95;;
60318;SDS011;46163;52.306;5.634;2022-11-27T09:56:07;0.82;;;0.82;;
60318;SDS011;46163;52.306;5.634;2022-11-27T09:58:42;1.85;;;1.15;;
60318;SDS011;46163;52.306;5.634;2022-11-27T10:01:12;1.10;;;0.90;;
60318;SDS011;46163;52.306;5.634;2022-11-27T10:03:41;1.27;;;1.05;;
60318;SDS011;46163;52.306;5.634;2022-11-27T10:06:15;1.27;;;1.20;;
60318;SDS011;46163;52.306;5.634;2022-11-27T10:17:09;6.82;;;1.38;;
60318;SDS011;46163;52.306;5.634;2022-11-27T10:20:02;1.10;;;1.00;;
60318;SDS011;46163;52.306;5.634;2022-11-27T10:22:45;2.03;;;1.20;;
60318;SDS011;46163;52.306;5.634;2022-11-27T10:25:22;1.40;;;1.30;;
60318;SDS011;46163;52.306;5.634;2022-11-27T10:27:59;5.28;;;1.20;;
60318;SDS011;46163;52.306;5.634;2022-11-27T10:30:45;2.10;;;1.20;;
60318;SDS011;46163;52.306;5.634;2022-11-27T10:36:27;1.67;;;1.30;;
60318;SDS011;46163;52.306;5.634;2022-11-27T10:39:03;1.08;;;1.08;;
60318;SDS011;46163;52.306;5.634;2022-11-27T10:41:38;1.15;;;1.08;;
60318;SDS011;46163;52.306;5.634;2022-11-27T10:44:34;1.05;;;1.05;;
60318;SDS011;46163;52.306;5.634;2022-11-27T10:47:04;1.38;;;1.10;;
60318;SDS011;46163;52.306;5.634;2022-11-27T10:49:32;1.20;;;1.10;;
60318;SDS011;46163;52.306;5.634;2022-11-27T10:52:01;1.23;;;1.15;;
60318;SDS011;46163;52.306;5.634;2022-11-27T10:54:29;3.67;;;1.20;;
60318;SDS011;46163;52.306;5.634;2022-11-27T11:00:12;1.00;;;1.00;;
60318;SDS011;46163;52.306;5.634;2022-11-27T11:02:44;1.15;;;0.95;;
60318;SDS011;46163;52.306;5.634;2022-11-27T11:05:23;1.23;;;1.10;;
60318;SDS011;46163;52.306;5.634;2022-11-27T11:07:54;2.63;;;1.20;;
60318;SDS011;46163;52.306;5.634;2022-11-27T11:10:32;1.13;;;1.02;;
60318;SDS011;46163;52.306;5.634;2022-11-27T11:13:08;1.10;;;1.10;;
60318;SDS011;46163;52.306;5.634;2022-11-27T11:15:57;1.15;;;1.10;;
60318;SDS011;46163;52.306;5.634;2022-11-27T11:18:41;1.23;;;1.17;;
60318;SDS011;46163;52.306;5.634;2022-11-27T11:21:12;1.60;;;1.40;;
60318;SDS011;46163;52.306;5.634;2022-11-27T11:23:41;2.13;;;1.63;;
60318;SDS011;46163;52.306;5.634;2022-11-27T11:28:52;2.88;;;1.65;;
60318;SDS011;46163;52.306;5.634;2022-11-27T11:31:27;2.30;;;1.60;;
60318;SDS011;46163;52.306;5.634;2022-11-27T11:34:01;1.50;;;1.40;;
60318;SDS011;46163;52.306;5.634;2022-11-27T11:36:35;2.33;;;1.90;;
60318;SDS011;46163;52.306;5.634;2022-11-27T11:41:54;3.88;;;1.35;;
60318;SDS011;46163;52.306;5.634;2022-11-27T11:44:41;1.55;;;1.45;;
60318;SDS011;46163;52.306;5.634;2022-11-27T11:47:17;1.30;;;1.20;;
60318;SDS011;46163;52.306;5.634;2022-11-27T11:49:43;1.40;;;1.30;;
60318;SDS011;46163;52.306;5.634;2022-11-27T11:54:54;1.98;;;1.20;;
60318;SDS011;46163;52.306;5.634;2022-11-27T12:00:11;1.33;;;1.23;;
60318;SDS011;46163;52.306;5.634;2022-11-27T12:11:38;1.00;;;1.00;;
60318;SDS011;46163;52.306;5.634;2022-11-27T12:14:19;1.30;;;1.20;;
60318;SDS011;46163;52.306;5.634;2022-11-27T12:25:28;1.15;;;1.15;;
60318;SDS011;46163;52.306;5.634;2022-11-27T12:28:14;1.67;;;1.30;;
60318;SDS011;46163;52.306;5.634;2022-11-27T12:36:38;1.48;;;1.30;;
60318;SDS011;46163;52.306;5.634;2022-11-27T12:39:45;1.08;;;1.08;;
60318;SDS011;46163;52.306;5.634;2022-11-27T12:42:33;1.40;;;1.30;;
60318;SDS011;46163;52.306;5.634;2022-11-27T12:45:17;1.13;;;0.95;;
60318;SDS011;46163;52.306;5.634;2022-11-27T12:50:58;1.02;;;0.80;;
60318;SDS011;46163;52.306;5.634;2022-11-27T12:53:33;1.60;;;1.30;;
60318;SDS011;46163;52.306;5.634;2022-11-27T12:56:13;1.88;;;1.10;;
60318;SDS011;46163;52.306;5.634;2022-11-27T12:58:50;1.20;;;1.10;;
60318;SDS011;46163;52.306;5.634;2022-11-27T13:01:44;1.40;;;1.30;;
60318;SDS011;46163;52.306;5.634;2022-11-27T13:04:25;1.33;;;1.20;;
60318;SDS011;46163;52.306;5.634;2022-11-27T13:10:53;1.25;;;1.17;;
60318;SDS011;46163;52.306;5.634;2022-11-27T13:13:04;2.95;;;1.73;;
60318;SDS011;46163;52.306;5.634;2022-11-27T13:21:09;3.35;;;2.25;;
60318;SDS011;46163;52.306;5.634;2022-11-27T13:23:37;6.47;;;2.72;;
60318;SDS011;46163;52.306;5.634;2022-11-27T13:26:14;6.90;;;2.40;;
60318;SDS011;46163;52.306;5.634;2022-11-27T13:28:49;6.55;;;2.20;;
60318;SDS011;46163;52.306;5.634;2022-11-27T13:31:29;3.40;;;2.00;;
60318;SDS011;46163;52.306;5.634;2022-11-27T13:34:15;4.13;;;1.88;;
60318;SDS011;46163;52.306;5.634;2022-11-27T13:36:45;3.10;;;1.67;;
60318;SDS011;46163;52.306;5.634;2022-11-27T13:39:38;4.30;;;1.70;;
60318;SDS011;46163;52.306;5.634;2022-11-27T13:42:11;2.95;;;1.83;;
60318;SDS011;46163;52.306;5.634;2022-11-27T13:44:42;3.17;;;1.60;;
60318;SDS011;46163;52.306;5.634;2022-11-27T13:47:17;2.80;;;1.60;;
60318;SDS011;46163;52.306;5.634;2022-11-27T13:49:55;2.42;;;1.50;;
60318;SDS011;46163;52.306;5.634;2022-11-27T13:52:24;3.55;;;1.50;;
60318;SDS011;46163;52.306;5.634;2022-11-27T13:54:57;2.95;;;1.50;;
60318;SDS011;46163;52.306;5.634;2022-11-27T13:57:25;2.70;;;1.38;;
60318;SDS011;46163;52.306;5.634;2022-11-27T13:59:56;1.58;;;1.30;;
60318;SDS011;46163;52.306;5.634;2022-11-27T14:02:25;1.30;;;1.20;;
60318;SDS011;46163;52.306;5.634;2022-11-27T14:05:03;2.42;;;1.30;;
60318;SDS011;46163;52.306;5.634;2022-11-27T14:07:36;3.15;;;1.52;;
60318;SDS011;46163;52.306;5.634;2022-11-27T14:10:15;1.50;;;1.40;;
60318;SDS011;46163;52.306;5.634;2022-11-27T14:18:51;3.97;;;1.33;;
60318;SDS011;46163;52.306;5.634;2022-11-27T14:23:55;2.97;;;1.25;;
60318;SDS011;46163;52.306;5.634;2022-11-27T14:26:21;1.27;;;1.15;;
60318;SDS011;46163;52.306;5.634;2022-11-27T14:36:26;1.30;;;1.20;;
60318;SDS011;46163;52.306;5.634;2022-11-27T14:38:57;1.45;;;1.30;;
60318;SDS011;46163;52.306;5.634;2022-11-27T14:41:23;4.32;;;1.60;;
60318;SDS011;46163;52.306;5.634;2022-11-27T14:44:00;1.67;;;1.35;;
60318;SDS011;46163;52.306;5.634;2022-11-27T14:46:26;1.33;;;1.15;;
60318;SDS011;46163;52.306;5.634;2022-11-27T14:48:56;2.22;;;1.60;;
60318;SDS011;46163;52.306;5.634;2022-11-27T14:51:26;1.88;;;1.60;;
60318;SDS011;46163;52.306;5.634;2022-11-27T14:53:58;1.73;;;1.60;;
60318;SDS011;46163;52.306;5.634;2022-11-27T14:56:30;2.35;;;1.58;;
60318;SDS011;46163;52.306;5.634;2022-11-27T14:58:57;2.05;;;1.60;;
60318;SDS011;46163;52.306;5.634;2022-11-27T15:01:43;2.17;;;1.65;;
60318;SDS011;46163;52.306;5.634;2022-11-27T15:04:27;2.30;;;1.83;;
60318;SDS011;46163;52.306;5.634;2022-11-27T15:06:59;2.30;;;1.90;;
60318;SDS011;46163;52.306;5.634;2022-11-27T15:09:26;2.25;;;1.80;;
60318;SDS011;46163;52.306;5.634;2022-11-27T15:11:57;2.45;;;1.77;;
60318;SDS011;46163;52.306;5.634;2022-11-27T15:14:30;2.65;;;1.77;;
60318;SDS011;46163;52.306;5.634;2022-11-27T15:17:00;2.08;;;1.85;;
60318;SDS011;46163;52.306;5.634;2022-11-27T15:19:30;1.88;;;1.70;;
60318;SDS011;46163;52.306;5.634;2022-11-27T15:21:59;3.33;;;1.90;;
60318;SDS011;46163;52.306;5.634;2022-11-27T15:24:35;1.77;;;1.67;;
60318;SDS011;46163;52.306;5.634;2022-11-27T15:32:51;1.60;;;1.50;;
60318;SDS011;46163;52.306;5.634;2022-11-27T15:35:21;2.38;;;2.05;;
60318;SDS011;46163;52.306;5.634;2022-11-27T15:37:52;1.73;;;1.63;;
60318;SDS011;46163;52.306;5.634;2022-11-27T15:43:11;2.28;;;2.03;;
60318;SDS011;46163;52.306;5.634;2022-11-27T15:45:40;2.10;;;1.90;;
60318;SDS011;46163;52.306;5.634;2022-11-27T15:48:13;2.13;;;1.80;;
60318;SDS011;46163;52.306;5.634;2022-11-27T15:50:39;2.00;;;1.80;;
60318;SDS011;46163;52.306;5.634;2022-11-27T15:53:05;2.47;;;1.75;;
60318;SDS011;46163;52.306;5.634;2022-11-27T15:55:31;2.25;;;1.73;;
60318;SDS011;46163;52.306;5.634;2022-11-27T15:57:57;3.63;;;1.80;;
60318;SDS011;46163;52.306;5.634;2022-11-27T16:00:23;2.47;;;1.70;;
60318;SDS011;46163;52.306;5.634;2022-11-27T16:02:50;1.80;;;1.70;;
60318;SDS011;46163;52.306;5.634;2022-11-27T16:05:22;2.13;;;1.73;;
60318;SDS011;46163;52.306;5.634;2022-11-27T16:07:48;1.90;;;1.77;;
60318;SDS011;46163;52.306;5.634;2022-11-27T16:10:14;2.45;;;2.00;;
60318;SDS011;46163;52.306;5.634;2022-11-27T16:12:39;2.22;;;1.75;;
60318;SDS011;46163;52.306;5.634;2022-11-27T16:15:05;2.03;;;1.90;;
60318;SDS011;46163;52.306;5.634;2022-11-27T16:17:32;1.85;;;1.60;;
60318;SDS011;46163;52.306;5.634;2022-11-27T16:19:57;1.73;;;1.63;;
60318;SDS011;46163;52.306;5.634;2022-11-27T16:22:23;1.85;;;1.70;;
60318;SDS011;46163;52.306;5.634;2022-11-27T16:24:50;2.42;;;2.10;;
60318;SDS011;46163;52.306;5.634;2022-11-27T16:27:16;2.00;;;1.80;;
60318;SDS011;46163;52.306;5.634;2022-11-27T16:29:42;2.58;;;1.90;;
60318;SDS011;46163;52.306;5.634;2022-11-27T16:32:08;2.65;;;1.90;;
60318;SDS011;46163;52.306;5.634;2022-11-27T16:34:34;1.90;;;1.80;;
60318;SDS011;46163;52.306;5.634;2022-11-27T16:37:00;5.40;;;1.65;;
60318;SDS011;46163;52.306;5.634;2022-11-27T16:39:26;1.73;;;1.63;;
60318;SDS011;46163;52.306;5.634;2022-11-27T16:41:51;1.63;;;1.52;;
60318;SDS011;46163;52.306;5.634;2022-11-27T16:44:17;2.03;;;1.83;;
60318;SDS011;46163;52.306;5.634;2022-11-27T16:46:42;2.08;;;1.88;;
60318;SDS011;46163;52.306;5.634;2022-11-27T16:49:08;2.40;;;1.80;;
60318;SDS011;46163;52.306;5.634;2022-11-27T16:51:36;2.40;;;1.83;;
60318;SDS011;46163;52.306;5.634;2022-11-27T16:54:03;2.10;;;1.90;;
60318;SDS011;46163;52.306;5.634;2022-11-27T16:56:31;3.08;;;1.77;;
60318;SDS011;46163;52.306;5.634;2022-11-27T16:58:58;1.98;;;1.80;;
60318;SDS011;46163;52.306;5.634;2022-11-27T17:01:27;1.83;;;1.73;;
60318;SDS011;46163;52.306;5.634;2022-11-27T17:03:55;3.40;;;1.65;;
60318;SDS011;46163;52.306;5.634;2022-11-27T17:06:28;3.80;;;2.00;;